Time;durP1;ratioP1;P1;durP2;ratioP2;P2;SDS_P1;SDS_P2;PMS_P1;PMS_P2;Temp;Humidity;BMP_temperature;BMP_pressure;BME280_temperature;BME280_humidity;BME280_pressure;Samples;Min_cycle;Max_cycle;Signal;HPM_P1;HPM_P2
2021/06/08 00:00:55;;;;;;;10.13;8.93;;;;;;;18.54;61.24;101063.03;5042281;28;20959;-74
2021/06/08 00:03:22;;;;;;;11.83;8.80;;;;;;;18.52;60.82;101059.66;5042512;28;20511;-74
2021/06/08 00:05:48;;;;;;;9.50;8.50;;;;;;;18.16;60.58;101054.63;5042293;28;20585;-75
2021/06/08 00:08:14;;;;;;;10.17;8.77;;;;;;;18.32;60.43;101061.03;5043365;28;20427;-75
2021/06/08 00:10:40;;;;;;;9.40;8.50;;;;;;;18.28;60.47;101056.97;5042259;28;20473;-74
2021/06/08 00:13:06;;;;;;;9.97;7.50;;;;;;;18.22;60.54;101053.94;5042443;28;20492;-74
2021/06/08 00:15:33;;;;;;;16.43;8.53;;;;;;;18.34;60.82;101057.13;5042412;28;20473;-74
2021/06/08 00:18:00;;;;;;;9.60;8.60;;;;;;;18.29;60.80;101058.69;5042808;28;20458;-75
2021/06/08 00:20:26;;;;;;;10.30;8.83;;;;;;;18.35;60.93;101057.97;5042015;28;20477;-75
2021/06/08 00:22:53;;;;;;;9.00;8.03;;;;;;;18.31;60.69;101053.94;5042113;28;20670;-75
2021/06/08 00:25:19;;;;;;;11.13;8.67;;;;;;;18.08;61.44;101057.34;5041478;28;20502;-75
2021/06/08 00:27:45;;;;;;;9.10;8.30;;;;;;;18.04;60.89;101051.44;5042572;28;20500;-76
2021/06/08 00:30:12;;;;;;;8.40;7.60;;;;;;;18.07;61.19;101058.34;5041833;28;20948;-75
2021/06/08 00:32:38;;;;;;;13.93;8.40;;;;;;;18.13;60.90;101060.38;5041884;28;20532;-75
2021/06/08 00:35:07;;;;;;;8.83;8.00;;;;;;;18.13;62.01;101054.13;5042300;28;20770;-74
2021/06/08 00:37:33;;;;;;;8.10;7.40;;;;;;;18.21;61.85;101049.56;5042912;28;20473;-75
2021/06/08 00:39:59;;;;;;;8.33;7.20;;;;;;;18.19;62.03;101053.44;5043064;28;20480;-74
2021/06/08 00:42:29;;;;;;;7.13;6.43;;;;;;;18.17;62.39;101055.47;5040931;28;20505;-74
2021/06/08 00:44:55;;;;;;;9.90;7.27;;;;;;;18.10;61.63;101054.47;5042454;28;20577;-74
2021/06/08 00:47:21;;;;;;;11.73;8.73;;;;;;;18.17;60.97;101050.06;5041357;28;20469;-73
2021/06/08 00:49:47;;;;;;;10.20;8.97;;;;;;;18.20;60.30;101060.56;5042581;28;20469;-73
2021/06/08 00:52:16;;;;;;;10.40;9.30;;;;;;;18.17;60.85;101056.31;5040383;28;20559;-74
2021/06/08 00:54:42;;;;;;;9.07;8.27;;;;;;;18.13;61.00;101052.25;5041472;28;20462;-73
2021/06/08 00:57:08;;;;;;;12.20;8.43;;;;;;;18.15;61.14;101050.22;5041375;28;20593;-74
2021/06/08 00:59:34;;;;;;;10.17;8.53;;;;;;;18.22;60.79;101048.53;5042363;28;20460;-74
2021/06/08 01:02:00;;;;;;;8.47;7.67;;;;;;;18.14;62.34;101051.25;5040718;28;20488;-74
2021/06/08 01:04:26;;;;;;;10.70;7.67;;;;;;;18.06;62.75;101053.97;5042138;28;20481;-74
2021/06/08 01:06:53;;;;;;;7.60;6.80;;;;;;;17.99;63.42;101050.25;5041559;28;20509;-74
2021/06/08 01:09:20;;;;;;;8.83;7.60;;;;;;;18.03;63.32;101047.00;5041309;28;20469;-74
2021/06/08 01:11:46;;;;;;;7.63;6.83;;;;;;;18.09;62.96;101042.81;5041155;28;20497;-75
2021/06/08 01:14:12;;;;;;;9.83;7.30;;;;;;;18.06;62.80;101051.25;5041947;28;20461;-75
2021/06/08 01:16:39;;;;;;;11.97;7.57;;;;;;;18.01;63.27;101048.22;5041090;28;20608;-75
2021/06/08 01:19:06;;;;;;;9.47;8.57;;;;;;;18.04;62.86;101053.28;5041641;28;20458;-75
2021/06/08 01:21:34;;;;;;;10.80;9.70;;;;;;;18.09;61.74;101047.34;5040215;28;20573;-75
2021/06/08 01:24:02;;;;;;;13.07;9.70;;;;;;;18.19;61.41;101050.72;5042023;28;20445;-74
2021/06/08 01:26:28;;;;;;;10.87;9.73;;;;;;;18.15;61.46;101043.97;5034622;28;20547;-74
2021/06/08 01:28:57;;;;;;;13.37;10.33;;;;;;;18.22;61.23;101048.53;5041321;28;20616;-74
2021/06/08 01:31:24;;;;;;;11.73;10.53;;;;;;;18.16;61.56;101042.97;5039785;28;20508;-74
2021/06/08 01:33:51;;;;;;;12.53;10.60;;;;;;;18.13;61.96;101044.16;5041246;28;20522;-74
2021/06/08 01:36:19;;;;;;;11.43;9.80;;;;;;;18.17;61.96;101040.06;5040705;28;20512;-75
2021/06/08 01:38:49;;;;;;;14.17;10.00;;;;;;;18.14;62.02;101037.72;5041589;28;21006;-75
2021/06/08 01:41:15;;;;;;;11.33;10.10;;;;;;;18.07;62.62;101042.09;5040639;28;20484;-75
2021/06/08 01:43:42;;;;;;;10.73;9.63;;;;;;;18.05;62.88;101036.88;5041097;28;20442;-75
2021/06/08 01:46:09;;;;;;;12.90;10.90;;;;;;;18.11;62.83;101045.34;5040856;28;21224;-75
2021/06/08 01:48:35;;;;;;;11.93;10.80;;;;;;;18.08;62.77;101041.09;5041057;28;20437;-76
2021/06/08 01:51:09;;;;;;;12.70;11.43;;;;;;;18.11;62.20;101039.94;5040362;28;20497;-75
2021/06/08 01:53:37;;;;;;;12.83;11.53;;;;;;;18.06;62.31;101035.84;5040991;28;20454;-75
2021/06/08 01:56:08;;;;;;;12.20;10.00;;;;;;;18.16;62.28;101034.84;5039456;28;20814;-74
2021/06/08 01:58:41;;;;;;;11.97;10.60;;;;;;;18.11;62.41;101037.22;5041142;28;20477;-75
2021/06/08 02:01:13;;;;;;;13.73;10.70;;;;;;;17.91;63.25;101034.00;5040210;28;20486;-74
2021/06/08 02:03:41;;;;;;;15.03;13.43;;;;;;;17.90;62.72;101035.88;5040421;28;21014;-75
2021/06/08 02:06:13;;;;;;;13.67;12.27;;;;;;;17.85;62.56;101033.63;5028391;28;21029;-74
2021/06/08 02:08:43;;;;;;;13.10;11.70;;;;;;;17.85;62.97;101035.50;5041267;28;20418;-74
2021/06/08 02:11:12;;;;;;;19.20;12.33;;;;;;;17.87;63.32;101038.91;5040332;28;20516;-74
2021/06/08 02:13:48;;;;;;;15.70;11.27;;;;;;;17.70;63.50;101038.03;5040877;28;20451;-74
2021/06/08 02:16:17;;;;;;;14.10;12.47;;;;;;;17.74;63.07;101036.69;5040131;28;20509;-73
2021/06/08 02:18:44;;;;;;;14.53;12.00;;;;;;;17.73;63.16;101031.44;5040928;28;20458;-74
2021/06/08 02:21:11;;;;;;;13.10;11.70;;;;;;;17.76;63.07;101031.09;5040741;28;20516;-74
2021/06/08 02:23:38;;;;;;;13.77;12.37;;;;;;;17.75;62.53;101042.94;5040701;28;20473;-74
2021/06/08 02:26:05;;;;;;;14.83;12.17;;;;;;;17.77;62.51;101041.75;5039757;28;20549;-74
2021/06/08 02:28:36;;;;;;;13.07;11.40;;;;;;;17.80;62.25;101035.16;5040655;28;20485;-74
2021/06/08 02:31:06;;;;;;;14.10;10.70;;;;;;;17.85;61.98;101039.06;5039915;28;20496;-74
2021/06/08 02:33:33;;;;;;;23.43;12.03;;;;;;;17.69;62.17;101036.34;5039988;28;20454;-74
2021/06/08 02:35:59;;;;;;;15.33;11.70;;;;;;;17.65;62.16;101045.78;5040760;28;20466;-74
2021/06/08 02:38:27;;;;;;;12.90;10.50;;;;;;;17.73;61.63;101042.28;5041083;28;20473;-74
2021/06/08 02:40:53;;;;;;;12.60;11.17;;;;;;;17.76;61.81;101050.03;5040116;28;20478;-74
2021/06/08 02:43:22;;;;;;;13.20;11.90;;;;;;;17.75;61.60;101057.31;5040310;28;20444;-74
2021/06/08 02:45:51;;;;;;;12.40;11.20;;;;;;;17.64;61.39;101063.06;5039848;28;20470;-75
2021/06/08 02:48:18;;;;;;;12.83;11.53;;;;;;;17.71;60.80;101053.25;5041143;28;20438;-74
2021/06/08 02:50:46;;;;;;;13.33;11.20;;;;;;;17.74;61.08;101052.06;5039411;28;20489;-73
2021/06/08 02:53:13;;;;;;;15.03;11.83;;;;;;;17.46;61.35;101052.34;5040346;28;20481;-74
2021/06/08 02:55:39;;;;;;;12.77;11.30;;;;;;;17.53;61.63;101056.09;5038893;28;20473;-74
2021/06/08 02:58:06;;;;;;;12.27;10.97;;;;;;;17.45;61.73;101061.50;5040413;28;21151;-75
2021/06/08 03:00:32;;;;;;;13.63;11.77;;;;;;;17.49;61.18;101060.13;5033523;28;20591;-74
2021/06/08 03:03:02;;;;;;;13.20;11.10;;;;;;;17.49;61.41;101055.56;5040609;28;20454;-74
2021/06/08 03:05:32;;;;;;;16.00;10.97;;;;;;;17.50;61.07;101061.84;5039834;28;20492;-75
2021/06/08 03:08:02;;;;;;;13.23;11.40;;;;;;;17.54;60.89;101055.09;5040782;28;20430;-75
2021/06/08 03:10:31;;;;;;;12.87;10.97;;;;;;;17.58;60.60;101061.00;5039462;28;20489;-75
2021/06/08 03:13:00;;;;;;;11.40;10.20;;;;;;;17.58;60.52;101056.44;5040343;28;20442;-75
2021/06/08 03:15:28;;;;;;;14.47;10.83;;;;;;;17.64;60.62;101054.94;5039865;28;20484;-74
2021/06/08 03:17:54;;;;;;;12.53;9.93;;;;;;;17.53;61.06;101047.97;5043985;28;20471;-75
2021/06/08 03:20:28;;;;;;;11.20;10.07;;;;;;;17.41;60.59;101054.72;5043483;28;20540;-75
2021/06/08 03:22:56;;;;;;;12.20;10.77;;;;;;;17.23;61.37;101052.97;5043687;28;20454;-74
2021/06/08 03:25:24;;;;;;;13.83;10.27;;;;;;;17.43;61.16;101049.97;5042818;28;20478;-74
2021/06/08 03:27:50;;;;;;;12.13;9.97;;;;;;;17.52;60.87;101046.31;5043084;28;20453;-74
2021/06/08 03:30:18;;;;;;;12.37;9.93;;;;;;;17.41;61.05;101054.72;5043143;28;20509;-74
2021/06/08 03:32:44;;;;;;;12.67;10.13;;;;;;;17.37;61.35;101053.38;5043362;28;20450;-74
2021/06/08 03:35:11;;;;;;;11.93;9.70;;;;;;;17.44;61.06;101051.69;5043670;28;20454;-75
2021/06/08 03:37:40;;;;;;;9.77;8.77;;;;;;;17.49;61.13;101049.31;5043508;28;20916;-74
2021/06/08 03:40:07;;;;;;;11.40;9.70;;;;;;;17.50;61.07;101054.56;5043163;28;20446;-74
2021/06/08 03:42:34;;;;;;;11.50;9.37;;;;;;;17.59;60.76;101054.59;5042795;28;20511;-74
2021/06/08 03:45:00;;;;;;;11.13;9.07;;;;;;;17.48;60.98;101048.50;5044211;28;20489;-74
2021/06/08 03:47:27;;;;;;;9.47;8.47;;;;;;;17.40;61.38;101045.75;5042647;28;20549;-74
2021/06/08 03:49:54;;;;;;;10.43;9.10;;;;;;;17.40;60.98;101047.63;5043186;28;20481;-74
2021/06/08 03:52:20;;;;;;;9.73;8.73;;;;;;;17.44;61.04;101040.88;5042793;28;20573;-74
2021/06/08 03:54:48;;;;;;;9.07;8.17;;;;;;;17.48;60.59;101045.78;5042644;28;20517;-74
2021/06/08 03:57:14;;;;;;;9.70;8.40;;;;;;;17.38;61.21;101041.56;5042563;28;20486;-74
2021/06/08 03:59:40;;;;;;;11.33;10.17;;;;;;;17.19;62.09;101035.41;5043565;28;20851;-74
2021/06/08 04:02:07;;;;;;;11.43;10.20;;;;;;;17.14;62.20;101035.06;5041847;28;20493;-73
2021/06/08 04:04:34;;;;;;;12.87;11.53;;;;;;;17.15;62.74;101038.59;5042915;28;20843;-74
2021/06/08 04:07:00;;;;;;;15.30;12.27;;;;;;;17.00;63.21;101046.50;5042413;28;20482;-74
2021/06/08 04:09:27;;;;;;;15.67;13.10;;;;;;;17.17;63.00;101053.66;5043495;28;20541;-74
2021/06/08 04:11:56;;;;;;;14.37;12.80;;;;;;;17.33;62.38;101041.19;5041283;28;20517;-75
2021/06/08 04:14:23;;;;;;;13.60;12.20;;;;;;;17.29;62.62;101046.94;5043653;28;20454;-75
2021/06/08 04:16:49;;;;;;;16.90;13.80;;;;;;;17.17;62.88;101048.25;5041747;28;20564;-74
2021/06/08 04:19:16;;;;;;;16.43;13.77;;;;;;;17.06;63.07;101048.53;5036803;28;20461;-75
2021/06/08 04:21:43;;;;;;;16.97;12.57;;;;;;;17.27;63.46;101051.66;5038865;28;20473;-74
2021/06/08 04:24:10;;;;;;;14.30;12.57;;;;;;;17.45;62.83;101056.09;5041149;28;20453;-73
2021/06/08 04:26:36;;;;;;;14.03;12.37;;;;;;;17.45;62.74;101046.13;5041182;28;20484;-74
2021/06/08 04:29:04;;;;;;;15.63;12.77;;;;;;;17.56;62.75;101047.66;5034825;28;20450;-75
2021/06/08 04:31:31;;;;;;;15.90;13.07;;;;;;;17.42;62.56;101051.00;5040012;28;20508;-75
2021/06/08 04:33:57;;;;;;;17.87;14.27;;;;;;;17.41;62.59;101049.31;5041818;28;20504;-74
2021/06/08 04:36:24;;;;;;;19.17;14.80;;;;;;;17.24;62.85;101048.44;5039724;28;21153;-75
2021/06/08 04:38:51;;;;;;;16.03;14.40;;;;;;;17.15;63.11;101054.81;5041241;28;20453;-75
2021/06/08 04:41:17;;;;;;;14.50;13.00;;;;;;;17.13;63.27;101049.56;5040661;28;20485;-74
2021/06/08 04:43:43;;;;;;;15.60;13.50;;;;;;;17.05;63.99;101046.84;5040676;28;20541;-74
2021/06/08 04:46:12;;;;;;;19.73;14.40;;;;;;;17.26;63.13;101046.41;5041275;28;20502;-74
2021/06/08 04:48:39;;;;;;;18.60;15.57;;;;;;;17.09;64.01;101054.47;5041113;28;20832;-74
2021/06/08 04:51:05;;;;;;;14.20;12.53;;;;;;;17.04;63.82;101058.66;5040120;28;20484;-77
2021/06/08 04:53:32;;;;;;;18.90;14.00;;;;;;;17.12;63.23;101056.84;5041025;28;20512;-72
2021/06/08 04:55:58;;;;;;;18.03;12.63;;;;;;;17.03;63.61;101054.25;5035520;28;20521;-72
2021/06/08 04:58:24;;;;;;;16.07;12.33;;;;;;;17.23;63.35;101062.94;5040362;28;20500;-75
2021/06/08 05:00:56;;;;;;;17.33;12.13;;;;;;;17.48;63.08;101053.03;5040574;28;20474;-74
2021/06/08 05:03:26;;;;;;;15.70;12.87;;;;;;;17.58;62.58;101059.13;5035386;28;20455;-74
2021/06/08 05:05:54;;;;;;;17.80;13.30;;;;;;;17.60;62.29;101053.56;5025700;28;20516;-75
2021/06/08 05:09:58;;;;;;;20.43;14.23;;;;;;;17.43;62.96;101058.09;4566367;27;15743796;-73
2021/06/08 05:12:25;;;;;;;19.75;15.27;;;;;;;17.33;63.75;101058.25;5098592;27;20728;-74
2021/06/08 05:14:54;;;;;;;20.30;14.20;;;;;;;17.27;64.11;101058.91;5099775;28;20665;-74
2021/06/08 05:53:20;;;;;;;19.50;17.40;;;;;;;17.89;63.27;101069.34;5141684;27;20525;-76
2021/06/08 05:55:49;;;;;;;19.10;17.10;;;;;;;18.00;63.58;101069.03;5084002;28;20496;-77
2021/06/08 05:58:16;;;;;;;19.03;17.23;;;;;;;18.03;63.20;101065.94;5057739;28;20454;-77
2021/06/08 06:00:42;;;;;;;19.13;17.13;;;;;;;18.16;62.79;101076.28;5055196;28;20473;-77
2021/06/08 06:03:09;;;;;;;17.83;15.93;;;;;;;18.39;62.47;101075.59;5056443;28;20453;-76
2021/06/08 06:05:37;;;;;;;18.67;15.33;;;;;;;18.42;62.17;101081.50;5057283;28;20481;-76
2021/06/08 06:08:04;;;;;;;18.50;15.60;;;;;;;18.17;62.85;101077.97;5057741;28;20482;-76
2021/06/08 06:10:32;;;;;;;19.97;16.30;;;;;;;18.31;62.46;101072.88;5056991;28;20476;-76
2021/06/08 06:12:58;;;;;;;19.80;17.80;;;;;;;18.45;62.05;101074.88;5057679;28;20549;-75
2021/06/08 06:15:27;;;;;;;21.13;16.90;;;;;;;18.33;62.81;101079.84;5057435;28;20469;-76
2021/06/08 06:17:54;;;;;;;20.17;17.93;;;;;;;18.43;62.95;101085.03;5043347;28;20458;-76
2021/06/08 06:20:20;;;;;;;24.67;16.43;;;;;;;18.83;61.45;101077.03;5035331;28;20600;-75
2021/06/08 06:22:47;;;;;;;18.87;16.43;;;;;;;18.61;61.67;101071.31;5054604;28;20454;-76
2021/06/08 06:25:14;;;;;;;20.33;16.90;;;;;;;18.40;62.90;101077.25;5053020;28;20426;-76
2021/06/08 06:27:43;;;;;;;18.63;16.27;;;;;;;18.13;62.97;101081.19;5056370;28;20440;-76
2021/06/08 06:30:11;;;;;;;19.07;17.10;;;;;;;17.96;63.49;101081.19;5036887;28;20446;-76
2021/06/08 06:32:38;;;;;;;20.87;18.30;;;;;;;17.95;63.87;101082.22;5036293;28;20501;-75
2021/06/08 06:35:05;;;;;;;20.50;18.50;;;;;;;18.01;63.77;101078.81;5036850;28;21228;-76
2021/06/08 06:37:32;;;;;;;19.40;17.30;;;;;;;18.18;63.85;101084.25;5037870;28;20450;-75
2021/06/08 06:39:59;;;;;;;23.43;19.20;;;;;;;18.08;63.98;101083.56;5036474;28;20426;-75
2021/06/08 06:42:28;;;;;;;21.67;18.50;;;;;;;18.51;62.59;101082.31;5036170;28;20562;-75
2021/06/08 06:44:57;;;;;;;20.47;18.30;;;;;;;18.57;62.66;101083.50;5036990;28;20439;-76
2021/06/08 06:47:24;;;;;;;21.77;18.20;;;;;;;18.28;63.16;101087.63;5037717;28;20485;-75
2021/06/08 06:49:50;;;;;;;20.83;18.10;;;;;;;18.29;63.48;101091.16;5057888;28;20445;-76
2021/06/08 06:52:17;;;;;;;21.07;18.70;;;;;;;18.31;62.95;101089.13;5056158;28;20498;-75
2021/06/08 06:54:44;;;;;;;20.60;18.40;;;;;;;18.31;63.06;101086.41;5055388;28;20536;-75
2021/06/08 06:57:11;;;;;;;21.40;18.57;;;;;;;18.19;63.79;101084.06;5056026;28;20485;-75
2021/06/08 06:59:38;;;;;;;26.50;18.90;;;;;;;18.42;63.22;101092.31;5056468;28;20465;-75
2021/06/08 07:02:09;;;;;;;21.10;18.90;;;;;;;18.58;62.60;101088.75;5055521;28;20477;-76
2021/06/08 07:04:36;;;;;;;21.63;19.23;;;;;;;18.98;61.75;101091.53;5042983;28;20431;-76
2021/06/08 07:07:03;;;;;;;22.10;19.63;;;;;;;18.89;61.79;101100.72;5043089;28;20478;-75
2021/06/08 07:09:30;;;;;;;23.10;20.53;;;;;;;18.75;62.39;101099.56;5041631;28;20734;-75
2021/06/08 07:11:59;;;;;;;23.43;19.83;;;;;;;18.86;61.71;101101.91;5042723;28;20549;-75
2021/06/08 07:14:26;;;;;;;24.97;20.70;;;;;;;19.08;61.20;101103.03;5043112;28;20523;-76
2021/06/08 07:16:53;;;;;;;20.77;18.67;;;;;;;19.32;61.13;101096.66;5040150;28;21254;-76
2021/06/08 07:19:24;;;;;;;22.53;20.23;;;;;;;19.53;60.31;101101.44;5042787;28;20481;-75
2021/06/08 07:21:50;;;;;;;23.50;19.83;;;;;;;19.63;59.94;101103.06;5041709;28;20466;-76
2021/06/08 07:24:17;;;;;;;22.47;19.37;;;;;;;19.47;60.58;101107.56;5041479;28;20920;-75
2021/06/08 07:26:43;;;;;;;25.10;20.73;;;;;;;19.16;61.00;101099.41;5042479;28;20474;-75
2021/06/08 07:29:09;;;;;;;23.57;19.50;;;;;;;19.28;61.37;101099.88;5042585;28;20981;-75
2021/06/08 07:31:48;;;;;;;23.63;20.50;;;;;;;19.55;60.83;101093.97;5042019;28;21007;-75
2021/06/08 07:34:23;;;;;;;23.43;20.23;;;;;;;19.61;60.95;101095.09;5042506;28;21064;-76
2021/06/08 07:36:49;;;;;;;20.53;18.07;;;;;;;19.64;60.37;101107.47;5042586;28;20490;-76
2021/06/08 07:39:21;;;;;;;25.00;20.40;;;;;;;19.40;61.00;101101.16;5041737;28;20506;-75
2021/06/08 07:41:52;;;;;;;22.93;20.43;;;;;;;19.68;60.47;101103.38;5042419;28;20474;-76
2021/06/08 07:44:25;;;;;;;22.30;20.00;;;;;;;19.87;59.10;101104.81;5042561;28;20452;-75
2021/06/08 07:46:51;;;;;;;27.67;22.10;;;;;;;19.60;59.94;101109.72;5041645;28;20485;-76
2021/06/08 07:49:18;;;;;;;25.10;20.30;;;;;;;19.80;59.68;101107.41;5042740;28;20680;-75
2021/06/08 07:51:46;;;;;;;21.80;19.60;;;;;;;20.04;59.70;101113.69;5041878;28;20548;-75
2021/06/08 07:54:12;;;;;;;24.67;21.20;;;;;;;19.25;61.55;101111.94;5041026;28;20464;-76
2021/06/08 07:56:39;;;;;;;24.70;21.60;;;;;;;19.51;61.66;101113.47;5041797;28;20561;-75
2021/06/08 07:59:05;;;;;;;23.50;21.00;;;;;;;19.76;60.34;101116.94;5042171;28;20454;-76
2021/06/08 08:01:33;;;;;;;22.97;20.60;;;;;;;19.84;60.11;101108.75;5041524;28;20474;-75
2021/06/08 08:03:59;;;;;;;25.53;20.67;;;;;;;19.98;59.54;101106.25;5042460;28;20462;-76
2021/06/08 08:06:26;;;;;;;25.97;21.03;;;;;;;20.03;59.91;101104.69;5041606;28;21003;-76
2021/06/08 08:08:54;;;;;;;26.10;20.40;;;;;;;20.09;59.68;101111.25;5041809;28;20527;-75
2021/06/08 08:11:21;;;;;;;23.30;20.80;;;;;;;19.79;60.14;101111.16;5041767;28;20491;-75
2021/06/08 08:13:49;;;;;;;25.33;21.57;;;;;;;19.72;60.38;101115.53;5041855;28;20446;-76
2021/06/08 08:16:15;;;;;;;24.53;21.83;;;;;;;19.92;60.03;101111.38;5039961;28;20481;-76
2021/06/08 08:18:43;;;;;;;24.80;21.47;;;;;;;20.23;59.60;101107.75;5040691;28;20469;-75
2021/06/08 08:21:12;;;;;;;22.67;20.23;;;;;;;20.48;58.53;101110.22;5041133;28;20474;-76
2021/06/08 08:23:39;;;;;;;24.47;21.97;;;;;;;20.29;59.58;101108.88;5041398;28;20522;-76
2021/06/08 08:26:09;;;;;;;25.53;22.80;;;;;;;20.06;59.33;101117.88;5040734;28;20509;-75
2021/06/08 08:28:37;;;;;;;26.20;22.70;;;;;;;20.17;59.37;101119.31;5041308;28;20461;-76
2021/06/08 08:31:05;;;;;;;28.10;23.03;;;;;;;19.90;59.33;101115.31;5038594;28;20478;-75
2021/06/08 08:33:31;;;;;;;26.83;23.40;;;;;;;19.85;60.13;101123.16;5040362;28;20481;-76
2021/06/08 08:35:58;;;;;;;28.60;23.10;;;;;;;19.91;60.40;101122.41;5041303;28;20894;-75
2021/06/08 08:38:24;;;;;;;25.10;22.50;;;;;;;20.37;59.70;101122.38;5041376;28;21094;-76
2021/06/08 08:40:51;;;;;;;26.87;22.73;;;;;;;20.45;59.22;101122.31;5039645;28;20946;-76
2021/06/08 08:43:19;;;;;;;28.60;23.10;;;;;;;20.21;59.61;101126.09;5041193;28;20461;-76
2021/06/08 08:45:48;;;;;;;29.90;23.90;;;;;;;19.74;60.73;101127.97;5040872;28;20471;-76
2021/06/08 08:48:14;;;;;;;28.70;25.60;;;;;;;19.69;61.48;101127.63;5040209;28;20977;-76
2021/06/08 08:50:40;;;;;;;27.63;24.80;;;;;;;20.06;60.12;101120.59;5039792;28;20497;-75
2021/06/08 08:53:08;;;;;;;28.43;25.13;;;;;;;20.09;59.66;101122.97;5041658;28;20490;-76
2021/06/08 08:55:36;;;;;;;27.63;24.83;;;;;;;20.27;59.45;101122.63;5039016;28;20497;-75
2021/06/08 08:58:04;;;;;;;32.40;25.70;;;;;;;20.39;59.20;101116.78;5035322;28;20451;-76
2021/06/08 09:00:34;;;;;;;29.88;25.90;;;;;;;19.73;61.03;101123.50;5030099;28;20480;-76
2021/06/08 09:03:04;;;;;;;27.60;24.70;;;;;;;20.06;60.22;101125.19;5039865;28;20704;-76
2021/06/08 09:05:35;;;;;;;28.10;24.63;;;;;;;20.28;59.66;101120.78;5039273;28;20485;-76
2021/06/08 09:08:02;;;;;;;29.70;25.90;;;;;;;20.27;58.85;101122.63;5021401;28;20455;-76
2021/06/08 09:10:28;;;;;;;28.97;26.00;;;;;;;20.30;59.35;101122.25;5029824;28;20481;-76
2021/06/08 09:12:55;;;;;;;29.07;26.10;;;;;;;20.45;59.00;101110.59;5040431;28;20529;-76
2021/06/08 09:15:21;;;;;;;38.67;28.30;;;;;;;20.29;59.87;101125.16;5040007;28;20520;-75
2021/06/08 09:17:53;;;;;;;30.27;26.97;;;;;;;20.27;59.29;101119.91;5037911;28;20486;-76
2021/06/08 09:20:19;;;;;;;28.53;25.53;;;;;;;20.55;59.87;101113.88;5041279;28;20467;-76
2021/06/08 09:22:51;;;;;;;32.90;27.50;;;;;;;20.66;58.45;101113.47;5041174;28;20458;-76
2021/06/08 09:25:45;;;;;;;30.60;25.90;;;;;;;21.01;57.27;101110.22;5052331;28;20446;-75
2021/06/08 09:28:26;;;;;;;31.17;27.90;;;;;;;21.15;56.98;101114.78;5028040;28;20466;-76
2021/06/08 09:30:58;;;;;;;31.03;27.13;;;;;;;20.75;58.50;101108.78;5040819;28;20462;-76
2021/06/08 09:33:28;;;;;;;29.70;26.60;;;;;;;20.89;57.95;101112.53;5040683;28;20842;-76
2021/06/08 09:35:57;;;;;;;31.20;27.93;;;;;;;20.84;57.99;101104.09;5040743;28;20537;-76
2021/06/08 09:38:34;;;;;;;33.53;28.13;;;;;;;20.94;58.21;101109.28;5041238;28;20460;-76
2021/06/08 09:41:11;;;;;;;29.63;26.43;;;;;;;20.73;58.28;101101.84;5040359;28;20501;-76
2021/06/08 09:43:48;;;;;;;31.60;28.40;;;;;;;20.59;58.36;101098.91;5041136;28;20453;-76
2021/06/08 09:46:14;;;;;;;32.50;28.60;;;;;;;20.44;59.89;101106.19;5040943;28;20537;-76
2021/06/08 09:48:51;;;;;;;34.23;30.43;;;;;;;20.62;59.36;101098.59;5040071;28;20454;-76
2021/06/08 09:51:17;;;;;;;33.47;29.20;;;;;;;20.92;58.40;101097.72;5039253;28;20486;-76
2021/06/08 09:53:44;;;;;;;32.17;28.83;;;;;;;20.96;57.83;101099.06;5039191;28;20563;-76
2021/06/08 09:56:11;;;;;;;32.57;28.00;;;;;;;21.21;57.55;101102.28;5039406;28;20493;-76
2021/06/08 09:58:40;;;;;;;30.13;26.70;;;;;;;21.01;57.45;101099.34;5040364;28;20529;-76
2021/06/08 10:01:08;;;;;;;31.80;28.43;;;;;;;20.20;60.17;101102.66;5038178;28;20474;-76
2021/06/08 10:03:35;;;;;;;34.60;30.27;;;;;;;19.88;61.31;101101.09;5039936;28;20450;-76
2021/06/08 10:06:09;;;;;;;34.20;30.50;;;;;;;20.60;60.06;101097.88;5039781;28;20513;-76
2021/06/08 10:08:40;;;;;;;33.67;30.05;;;;;;;20.61;58.78;101096.00;5039602;28;20447;-76
2021/06/08 10:11:14;;;;;;;33.43;29.83;;;;;;;20.72;58.69;101092.03;5038594;28;20283;-76
2021/06/08 10:13:41;;;;;;;35.13;30.20;;;;;;;20.22;59.68;101097.88;5040433;28;20454;-76
2021/06/08 10:16:08;;;;;;;34.30;28.87;;;;;;;20.44;60.03;101092.63;5038954;28;20560;-76
2021/06/08 10:18:42;;;;;;;32.93;28.17;;;;;;;20.80;58.92;101086.50;5038686;28;20530;-76
2021/06/08 10:21:10;;;;;;;33.50;29.80;;;;;;;20.34;59.98;101089.31;5038785;28;20484;-76
2021/06/08 10:23:36;;;;;;;35.00;30.47;;;;;;;20.44;60.20;101096.16;5039632;28;20454;-76
2021/06/08 10:26:04;;;;;;;36.13;30.40;;;;;;;20.86;58.76;101096.59;5038388;28;20493;-76
2021/06/08 10:28:30;;;;;;;32.90;29.20;;;;;;;21.39;57.33;101096.47;5039996;28;20513;-75
2021/06/08 10:30:57;;;;;;;36.20;28.47;;;;;;;21.54;57.59;101088.28;5039155;28;20470;-76
2021/06/08 10:33:25;;;;;;;33.17;29.47;;;;;;;21.38;57.14;101095.59;5038922;28;20885;-76
2021/06/08 10:35:53;;;;;;;31.90;28.50;;;;;;;21.86;56.46;101088.84;5039210;28;20473;-76
2021/06/08 10:38:21;;;;;;;33.80;28.40;;;;;;;21.80;56.47;101088.56;5041958;28;20446;-76
2021/06/08 10:40:51;;;;;;;35.47;29.70;;;;;;;21.26;57.25;101088.97;5041494;28;20458;-76
2021/06/08 10:43:19;;;;;;;34.87;30.73;;;;;;;21.28;57.41;101088.78;5043716;28;20489;-76
2021/06/08 10:45:46;;;;;;;39.47;31.50;;;;;;;21.58;56.99;101092.31;5043254;28;20505;-75
2021/06/08 10:48:16;;;;;;;36.20;28.77;;;;;;;21.88;55.80;101086.75;5043183;28;20441;-76
2021/06/08 10:50:45;;;;;;;33.60;28.80;;;;;;;21.83;56.24;101081.06;5042414;28;20470;-76
2021/06/08 10:53:27;;;;;;;33.43;27.43;;;;;;;22.82;53.64;101091.06;5043212;28;20531;-76
2021/06/08 10:55:54;;;;;;;36.57;29.43;;;;;;;22.77;53.37;101082.66;5041195;28;20482;-76
2021/06/08 10:58:43;;;;;;;32.73;27.97;;;;;;;23.12;52.11;101086.19;5043516;28;20477;-76
2021/06/08 11:01:45;;;;;;;32.73;28.90;;;;;;;21.33;57.03;101086.34;5041504;28;20486;-76
2021/06/08 11:04:14;;;;;;;34.70;29.57;;;;;;;21.87;55.58;101083.16;5043205;28;20453;-76
2021/06/08 11:06:58;;;;;;;34.57;30.97;;;;;;;22.50;54.74;101085.22;5042813;28;20513;-76
2021/06/08 11:09:34;;;;;;;32.23;28.83;;;;;;;23.30;52.37;101082.94;5042579;28;20465;-76
2021/06/08 11:12:03;;;;;;;34.40;29.30;;;;;;;23.59;51.44;101080.91;5042298;28;20485;-76
2021/06/08 11:14:48;;;;;;;29.63;26.47;;;;;;;24.06;50.58;101071.75;5043281;28;20960;-76
2021/06/08 11:17:15;;;;;;;31.37;28.10;;;;;;;23.86;50.05;101070.91;5039735;28;20481;-76
2021/06/08 11:19:52;;;;;;;33.20;29.60;;;;;;;22.84;52.71;101076.16;5042994;28;20609;-76
2021/06/08 11:22:20;;;;;;;33.40;29.73;;;;;;;23.50;51.45;101074.78;5041063;28;20481;-76
2021/06/08 11:24:49;;;;;;;32.93;29.33;;;;;;;24.43;50.28;101066.69;5041934;28;20494;-76
2021/06/08 11:27:15;;;;;;;32.20;29.03;;;;;;;25.58;47.32;101076.22;5042417;28;20469;-76
2021/06/08 11:29:44;;;;;;;29.57;26.47;;;;;;;26.29;45.49;101076.97;5043392;28;20519;-76
2021/06/08 11:32:12;;;;;;;30.73;26.10;;;;;;;26.32;45.49;101076.53;5040525;28;20486;-76
2021/06/08 11:35:06;;;;;;;29.67;26.57;;;;;;;24.86;47.66;101078.19;5043249;28;20449;-76
2021/06/08 11:38:14;;;;;;;33.30;27.37;;;;;;;24.65;48.77;101080.16;5022736;28;20542;-77
2021/06/08 11:40:51;;;;;;;32.80;27.80;;;;;;;24.28;50.38;101070.72;5020169;28;20461;-76
2021/06/08 11:43:53;;;;;;;32.47;29.10;;;;;;;24.26;49.91;101073.66;5022623;28;20447;-76
2021/06/08 11:46:29;;;;;;;34.47;28.83;;;;;;;23.01;52.66;101081.31;4950994;29;20657;-76
2021/06/08 11:49:13;;;;;;;33.37;29.77;;;;;;;23.09;53.71;101075.72;4961369;28;20607;-76
2021/06/08 11:51:46;;;;;;;34.63;30.97;;;;;;;23.09;52.73;101073.81;4959976;28;20579;-76
2021/06/08 11:54:14;;;;;;;31.97;28.10;;;;;;;23.11;53.26;101070.91;4959092;29;20461;-76
2021/06/08 11:56:53;;;;;;;34.20;30.73;;;;;;;23.56;51.76;101073.97;4947834;28;20560;-77